Aérodrome :
LOGIN :

S'inscrire | Disclaimer

   EN    FR    IT 

 










Légende :    VFR   VFR Marginal   IFR   IFR Intensif   IFR Très Intensif
Visi : 
Plafond : 
>= 8 km
>= 3000ft
5 à 8 km
1000 à 3000 ft
1500m à 5 km
500 à 1000 ft
800 à 1500m
200 à 500 ft
< 800m
< 200 ft
Symboles :   Orages  Brouillard  Fortes neiges  Fortes précipitations  Vent > 20 kt
SIGMETs :   Divers  Orages  Givrage  Turbulence  Onde Orograph.  Cendres Volcan.






- Altitude de l'aérodrome : 1411 ft
- Code IATA : SZG


LOWS - Salzburg

DERNIER METAR :
  • 280420Z AUTO 15007KT 9999 FEW014 SCT018 BKN024 M00/M01 Q1013

METARs EXPIRÉS :
  • 280350Z AUTO 15008KT 9999 -SHSN FEW014 SCT018 BKN026 M01/M01 Q1013
  • 280320Z AUTO 15007KT 9999 -FZRA FEW013 SCT020 BKN022 M01/M01 Q1013
  • 280250Z AUTO 16008KT 9999 FEW004 SCT011 BKN020 M01/M01 Q1014
  • 280220Z AUTO 16008KT 5000 -SN FEW005 BKN013 M01/M01 Q1014

TAF AMD TAF LOWS
Valide du 28 à 04h jusqu'au 29 à 00h UTC


280409Z 2804/2824 15006KT 9999 SCT020 BKN040 TX04/2824Z TNM01/2804Z
TEMPO 2804/2808 4000 -SN BKN008
PROB30
TEMPO 2804/2807 -FZDZ
BECMG 2810/2812 4000 RA SCT012 BKN020
BECMG 2815/2817 29010KT
TEMPO 2817/2824 27020G35KT 4500 SHRA SCT012 BKN020 FEW020CB



MET'MAP, la Météo Aéronautique d'un coup d'oeil ! - Copyright ORBIFLY Décembre 2007 - Disclaimer

ORBIFLY MET'MAP TEAM :

Programmation & Développement : Alexandra Zaïnal
Sur une idée originale de : Baudouin d'Aumeries
Assistance à la programmation : Marc-Olivier Méhu
Soutien technique & logistique : Manuel Goepfert

Contact : metmap@orbifly.com




SOURCES & CREDITS :

   NOAA